sensor_id;sensor_type;location;lat;lon;timestamp;pressure;altitude;pressure_sealevel;temperature;humidity
70304;BME280;57712;48.752;11.348;2023-01-28T00:01:16;97971.09;;;0.24;100.00
70304;BME280;57712;48.752;11.348;2023-01-28T00:03:42;97978.63;;;0.18;100.00
70304;BME280;57712;48.752;11.348;2023-01-28T00:06:13;97968.41;;;0.24;100.00
70304;BME280;57712;48.752;11.348;2023-01-28T00:08:40;97964.25;;;0.26;100.00
70304;BME280;57712;48.752;11.348;2023-01-28T00:11:10;97966.72;;;0.32;100.00
70304;BME280;57712;48.752;11.348;2023-01-28T00:13:37;97964.25;;;0.26;100.00
70304;BME280;57712;48.752;11.348;2023-01-28T00:16:05;97970.53;;;0.31;100.00
70304;BME280;57712;48.752;11.348;2023-01-28T00:18:34;97964.03;;;0.32;100.00
70304;BME280;57712;48.752;11.348;2023-01-28T00:21:07;97962.78;;;0.29;100.00
70304;BME280;57712;48.752;11.348;2023-01-28T00:23:35;97962.47;;;0.18;100.00
70304;BME280;57712;48.752;11.348;2023-01-28T00:26:10;97971.44;;;0.22;100.00
70304;BME280;57712;48.752;11.348;2023-01-28T00:28:37;97964.69;;;0.28;100.00
70304;BME280;57712;48.752;11.348;2023-01-28T00:31:14;97966.16;;;0.26;100.00
70304;BME280;57712;48.752;11.348;2023-01-28T00:33:43;97963.47;;;0.26;100.00
70304;BME280;57712;48.752;11.348;2023-01-28T00:36:10;97967.75;;;0.15;100.00
70304;BME280;57712;48.752;11.348;2023-01-28T00:38:37;97972.44;;;0.18;100.00
70304;BME280;57712;48.752;11.348;2023-01-28T00:41:08;97972.88;;;0.20;100.00
70304;BME280;57712;48.752;11.348;2023-01-28T00:43:36;97979.41;;;0.19;100.00
70304;BME280;57712;48.752;11.348;2023-01-28T00:46:04;97976.50;;;0.24;100.00
70304;BME280;57712;48.752;11.348;2023-01-28T00:48:33;97969.53;;;0.23;100.00
70304;BME280;57712;48.752;11.348;2023-01-28T00:51:00;97976.28;;;0.17;100.00
70304;BME280;57712;48.752;11.348;2023-01-28T00:53:27;97977.28;;;0.24;100.00
70304;BME280;57712;48.752;11.348;2023-01-28T00:55:53;97974.59;;;0.24;100.00
70304;BME280;57712;48.752;11.348;2023-01-28T00:58:20;97983.44;;;0.25;100.00
70304;BME280;57712;48.752;11.348;2023-01-28T01:00:49;97983.91;;;0.15;100.00
70304;BME280;57712;48.752;11.348;2023-01-28T01:03:16;97982.56;;;0.21;100.00
70304;BME280;57712;48.752;11.348;2023-01-28T01:05:44;97979.53;;;0.22;100.00
70304;BME280;57712;48.752;11.348;2023-01-28T01:08:11;97979.63;;;0.26;100.00
70304;BME280;57712;48.752;11.348;2023-01-28T01:10:38;97977.06;;;0.17;100.00
70304;BME280;57712;48.752;11.348;2023-01-28T01:13:06;97986.50;;;0.23;100.00
70304;BME280;57712;48.752;11.348;2023-01-28T01:15:33;97981.97;;;0.27;100.00
70304;BME280;57712;48.752;11.348;2023-01-28T01:17:59;97986.59;;;0.27;100.00
70304;BME280;57712;48.752;11.348;2023-01-28T01:20:28;97982.78;;;0.16;100.00
70304;BME280;57712;48.752;11.348;2023-01-28T01:22:58;97986.16;;;0.13;100.00
70304;BME280;57712;48.752;11.348;2023-01-28T01:25:25;97982.34;;;0.14;100.00
70304;BME280;57712;48.752;11.348;2023-01-28T01:27:51;97986.03;;;0.21;100.00
70304;BME280;57712;48.752;11.348;2023-01-28T01:30:18;97983.22;;;0.18;100.00
70304;BME280;57712;48.752;11.348;2023-01-28T01:32:45;97990.09;;;0.15;100.00
70304;BME280;57712;48.752;11.348;2023-01-28T01:35:12;97993.53;;;0.28;100.00
70304;BME280;57712;48.752;11.348;2023-01-28T01:37:42;97990.97;;;0.19;100.00
70304;BME280;57712;48.752;11.348;2023-01-28T01:40:10;97996.47;;;0.23;100.00
70304;BME280;57712;48.752;11.348;2023-01-28T01:42:36;97996.69;;;0.30;100.00
70304;BME280;57712;48.752;11.348;2023-01-28T01:45:05;98000.63;;;0.20;100.00
70304;BME280;57712;48.752;11.348;2023-01-28T01:47:41;97997.91;;;0.20;100.00
70304;BME280;57712;48.752;11.348;2023-01-28T01:50:26;97997.81;;;0.29;100.00
70304;BME280;57712;48.752;11.348;2023-01-28T01:52:56;97996.47;;;0.23;100.00
70304;BME280;57712;48.752;11.348;2023-01-28T01:55:26;97997.38;;;0.27;100.00
70304;BME280;57712;48.752;11.348;2023-01-28T01:57:55;98002.31;;;0.25;100.00
70304;BME280;57712;48.752;11.348;2023-01-28T02:00:23;98003.06;;;0.38;100.00
70304;BME280;57712;48.752;11.348;2023-01-28T02:02:51;98001.41;;;0.33;100.00
70304;BME280;57712;48.752;11.348;2023-01-28T02:05:20;97999.63;;;0.25;100.00
70304;BME280;57712;48.752;11.348;2023-01-28T02:07:51;98001.88;;;0.23;100.00
70304;BME280;57712;48.752;11.348;2023-01-28T02:10:21;98001.19;;;0.26;100.00
70304;BME280;57712;48.752;11.348;2023-01-28T02:12:52;98009.50;;;0.21;100.00
70304;BME280;57712;48.752;11.348;2023-01-28T02:15:23;98001.88;;;0.23;100.00
70304;BME280;57712;48.752;11.348;2023-01-28T02:17:52;98012.97;;;0.09;100.00
70304;BME280;57712;48.752;11.348;2023-01-28T02:20:23;98010.38;;;0.25;100.00
70304;BME280;57712;48.752;11.348;2023-01-28T02:23:21;98015.09;;;0.16;100.00
70304;BME280;57712;48.752;11.348;2023-01-28T02:31:33;98026.56;;;0.13;100.00
70304;BME280;57712;48.752;11.348;2023-01-28T02:34:41;98013.97;;;0.17;100.00
70304;BME280;57712;48.752;11.348;2023-01-28T02:37:14;98024.53;;;0.22;100.00
70304;BME280;57712;48.752;11.348;2023-01-28T02:39:47;98023.19;;;0.16;100.00
70304;BME280;57712;48.752;11.348;2023-01-28T02:42:27;98029.69;;;0.27;100.00
70304;BME280;57712;48.752;11.348;2023-01-28T02:44:55;98026.13;;;0.11;100.00
70304;BME280;57712;48.752;11.348;2023-01-28T02:47:24;98030.38;;;0.12;100.00
70304;BME280;57712;48.752;11.348;2023-01-28T02:50:15;98031.16;;;0.24;100.00
70304;BME280;57712;48.752;11.348;2023-01-28T02:53:14;98018.91;;;0.15;100.00
70304;BME280;57712;48.752;11.348;2023-01-28T02:59:10;98028.34;;;0.33;100.00
70304;BME280;57712;48.752;11.348;2023-01-28T03:02:09;98024.06;;;0.08;100.00
70304;BME280;57712;48.752;11.348;2023-01-28T03:04:59;98026.91;;;0.11;100.00
70304;BME280;57712;48.752;11.348;2023-01-28T03:07:28;98026.13;;;0.23;100.00
70304;BME280;57712;48.752;11.348;2023-01-28T03:09:57;98025.00;;;0.24;100.00
70304;BME280;57712;48.752;11.348;2023-01-28T03:12:30;98027.25;;;0.22;100.00
70304;BME280;57712;48.752;11.348;2023-01-28T03:15:23;98030.13;;;0.17;100.00
70304;BME280;57712;48.752;11.348;2023-01-28T03:18:14;98026.75;;;0.20;100.00
70304;BME280;57712;48.752;11.348;2023-01-28T03:21:09;98035.28;;;0.10;100.00
70304;BME280;57712;48.752;11.348;2023-01-28T03:24:21;98026.13;;;0.11;100.00
70304;BME280;57712;48.752;11.348;2023-01-28T03:30:18;98029.94;;;0.22;100.00
70304;BME280;57712;48.752;11.348;2023-01-28T03:33:05;98037.22;;;0.21;100.00
70304;BME280;57712;48.752;11.348;2023-01-28T03:35:51;98041.59;;;0.14;100.00
70304;BME280;57712;48.752;11.348;2023-01-28T03:38:38;98037.66;;;0.23;100.00
70304;BME280;57712;48.752;11.348;2023-01-28T03:41:20;98045.06;;;0.14;100.00
70304;BME280;57712;48.752;11.348;2023-01-28T03:43:48;98049.88;;;0.09;100.00
70304;BME280;57712;48.752;11.348;2023-01-28T03:46:14;98044.06;;;0.19;100.00
70304;BME280;57712;48.752;11.348;2023-01-28T03:48:41;98045.41;;;0.13;100.00
70304;BME280;57712;48.752;11.348;2023-01-28T03:51:08;98050.91;;;0.16;100.00
70304;BME280;57712;48.752;11.348;2023-01-28T03:53:34;98050.81;;;0.13;100.00
70304;BME280;57712;48.752;11.348;2023-01-28T03:56:01;98049.56;;;0.22;100.00
70304;BME280;57712;48.752;11.348;2023-01-28T03:58:27;98051.47;;;0.22;100.00
70304;BME280;57712;48.752;11.348;2023-01-28T04:01:12;98055.06;;;0.26;100.00
70304;BME280;57712;48.752;11.348;2023-01-28T04:03:38;98059.91;;;0.33;100.00
70304;BME280;57712;48.752;11.348;2023-01-28T04:06:07;98051.00;;;0.20;100.00
70304;BME280;57712;48.752;11.348;2023-01-28T04:08:34;98055.41;;;0.12;100.00
70304;BME280;57712;48.752;11.348;2023-01-28T04:11:01;98058.66;;;0.18;100.00
70304;BME280;57712;48.752;11.348;2023-01-28T04:13:41;98060.22;;;0.19;100.00
70304;BME280;57712;48.752;11.348;2023-01-28T04:16:09;98061.13;;;0.23;100.00
70304;BME280;57712;48.752;11.348;2023-01-28T04:18:36;98071.22;;;0.26;100.00
70304;BME280;57712;48.752;11.348;2023-01-28T04:21:03;98063.03;;;0.22;100.00
70304;BME280;57712;48.752;11.348;2023-01-28T04:23:29;98067.16;;;0.20;100.00
70304;BME280;57712;48.752;11.348;2023-01-28T04:25:56;98074.25;;;0.24;100.00
70304;BME280;57712;48.752;11.348;2023-01-28T04:28:23;98064.94;;;0.34;100.00
70304;BME280;57712;48.752;11.348;2023-01-28T04:30:50;98068.09;;;0.36;100.00
70304;BME280;57712;48.752;11.348;2023-01-28T04:33:17;98069.09;;;0.32;100.00
70304;BME280;57712;48.752;11.348;2023-01-28T04:35:44;98071.47;;;0.33;100.00
70304;BME280;57712;48.752;11.348;2023-01-28T04:38:11;98068.09;;;0.36;100.00
70304;BME280;57712;48.752;11.348;2023-01-28T04:40:37;98073.56;;;0.27;100.00
70304;BME280;57712;48.752;11.348;2023-01-28T04:43:03;98070.97;;;0.31;100.00
70304;BME280;57712;48.752;11.348;2023-01-28T04:45:30;98075.72;;;0.34;100.00
70304;BME280;57712;48.752;11.348;2023-01-28T04:47:56;98083.81;;;0.34;100.00
70304;BME280;57712;48.752;11.348;2023-01-28T04:50:23;98086.03;;;0.20;100.00
70304;BME280;57712;48.752;11.348;2023-01-28T04:52:50;98085.91;;;0.28;100.00
70304;BME280;57712;48.752;11.348;2023-01-28T04:55:16;98076.16;;;0.36;100.00
70304;BME280;57712;48.752;11.348;2023-01-28T04:57:43;98077.28;;;0.35;100.00
70304;BME280;57712;48.752;11.348;2023-01-28T05:00:12;98083.34;;;0.32;100.00
70304;BME280;57712;48.752;11.348;2023-01-28T05:02:38;98086.25;;;0.39;100.00
70304;BME280;57712;48.752;11.348;2023-01-28T05:05:05;98087.81;;;0.40;100.00
70304;BME280;57712;48.752;11.348;2023-01-28T05:07:35;98085.81;;;0.37;100.00
70304;BME280;57712;48.752;11.348;2023-01-28T05:10:02;98091.66;;;0.39;100.00
70304;BME280;57712;48.752;11.348;2023-01-28T05:12:29;98096.84;;;0.32;100.00
70304;BME280;57712;48.752;11.348;2023-01-28T05:14:59;98088.41;;;0.34;100.00
70304;BME280;57712;48.752;11.348;2023-01-28T05:17:29;98091.66;;;0.27;100.00
70304;BME280;57712;48.752;11.348;2023-01-28T05:19:56;98091.22;;;0.25;100.00
70304;BME280;57712;48.752;11.348;2023-01-28T05:22:22;98096.59;;;0.25;100.00
70304;BME280;57712;48.752;11.348;2023-01-28T05:24:48;98094.25;;;0.23;100.00
70304;BME280;57712;48.752;11.348;2023-01-28T05:27:15;98090.31;;;0.21;100.00
70304;BME280;57712;48.752;11.348;2023-01-28T05:29:41;98095.03;;;0.24;100.00
70304;BME280;57712;48.752;11.348;2023-01-28T05:32:08;98091.75;;;0.18;100.00
70304;BME280;57712;48.752;11.348;2023-01-28T05:34:35;98089.50;;;0.20;100.00
70304;BME280;57712;48.752;11.348;2023-01-28T05:37:01;98095.22;;;0.07;100.00
70304;BME280;57712;48.752;11.348;2023-01-28T05:39:28;98099.28;;;0.13;100.00
70304;BME280;57712;48.752;11.348;2023-01-28T05:41:55;98100.72;;;0.10;100.00
70304;BME280;57712;48.752;11.348;2023-01-28T05:44:21;98096.78;;;0.08;100.00
70304;BME280;57712;48.752;11.348;2023-01-28T05:46:48;98093.91;;;0.13;100.00
70304;BME280;57712;48.752;11.348;2023-01-28T05:49:15;98097.03;;;0.15;100.00
70304;BME280;57712;48.752;11.348;2023-01-28T05:51:42;98099.47;;;0.08;100.00
70304;BME280;57712;48.752;11.348;2023-01-28T05:54:09;98094.44;;;0.06;100.00
70304;BME280;57712;48.752;11.348;2023-01-28T05:56:35;98108.25;;;0.05;100.00
70304;BME280;57712;48.752;11.348;2023-01-28T05:59:03;98109.69;;;0.02;100.00
70304;BME280;57712;48.752;11.348;2023-01-28T06:01:29;98108.13;;;0.01;100.00
70304;BME280;57712;48.752;11.348;2023-01-28T06:03:56;98111.81;;;-0.04;100.00
70304;BME280;57712;48.752;11.348;2023-01-28T06:06:22;98111.28;;;0.03;100.00
70304;BME280;57712;48.752;11.348;2023-01-28T06:08:49;98117.66;;;-0.02;100.00
70304;BME280;57712;48.752;11.348;2023-01-28T06:11:16;98121.25;;;0.03;100.00
70304;BME280;57712;48.752;11.348;2023-01-28T06:13:45;98122.16;;;0.07;100.00
70304;BME280;57712;48.752;11.348;2023-01-28T06:16:12;98131.59;;;0.13;100.00
70304;BME280;57712;48.752;11.348;2023-01-28T06:18:39;98134.75;;;0.15;100.00
70304;BME280;57712;48.752;11.348;2023-01-28T06:21:07;98134.50;;;0.20;100.00
70304;BME280;57712;48.752;11.348;2023-01-28T06:23:33;98134.06;;;0.18;100.00
70304;BME280;57712;48.752;11.348;2023-01-28T06:25:59;98126.22;;;0.25;100.00
70304;BME280;57712;48.752;11.348;2023-01-28T06:28:26;98141.16;;;0.22;100.00
70304;BME280;57712;48.752;11.348;2023-01-28T06:30:53;98151.69;;;0.15;100.00
70304;BME280;57712;48.752;11.348;2023-01-28T06:33:20;98153.50;;;0.23;100.00
70304;BME280;57712;48.752;11.348;2023-01-28T06:35:47;98151.56;;;0.12;100.00
70304;BME280;57712;48.752;11.348;2023-01-28T06:38:13;98152.59;;;0.19;100.00
70304;BME280;57712;48.752;11.348;2023-01-28T06:40:40;98150.13;;;0.14;100.00
70304;BME280;57712;48.752;11.348;2023-01-28T06:43:06;98153.38;;;0.20;100.00
70304;BME280;57712;48.752;11.348;2023-01-28T06:45:33;98161.13;;;0.21;100.00
70304;BME280;57712;48.752;11.348;2023-01-28T06:47:59;98165.97;;;0.28;100.00
70304;BME280;57712;48.752;11.348;2023-01-28T06:50:26;98168.31;;;0.29;100.00
70304;BME280;57712;48.752;11.348;2023-01-28T06:52:52;98171.47;;;0.32;100.00
70304;BME280;57712;48.752;11.348;2023-01-28T06:55:19;98176.06;;;0.31;100.00
70304;BME280;57712;48.752;11.348;2023-01-28T06:57:45;98174.63;;;0.34;100.00
70304;BME280;57712;48.752;11.348;2023-01-28T07:00:13;98177.88;;;0.39;100.00
70304;BME280;57712;48.752;11.348;2023-01-28T07:02:42;98173.06;;;0.33;100.00
70304;BME280;57712;48.752;11.348;2023-01-28T07:05:08;98178.56;;;0.36;100.00
70304;BME280;57712;48.752;11.348;2023-01-28T07:07:35;98186.19;;;0.34;100.00
70304;BME280;57712;48.752;11.348;2023-01-28T07:10:02;98191.69;;;0.38;100.00
70304;BME280;57712;48.752;11.348;2023-01-28T07:12:29;98190.44;;;0.35;100.00
70304;BME280;57712;48.752;11.348;2023-01-28T07:14:55;98184.19;;;0.43;100.00
70304;BME280;57712;48.752;11.348;2023-01-28T07:17:22;98186.41;;;0.41;100.00
70304;BME280;57712;48.752;11.348;2023-01-28T07:19:48;98192.59;;;0.42;100.00
70304;BME280;57712;48.752;11.348;2023-01-28T07:22:15;98194.28;;;0.46;100.00
70304;BME280;57712;48.752;11.348;2023-01-28T07:24:41;98198.66;;;0.51;100.00
70304;BME280;57712;48.752;11.348;2023-01-28T07:27:08;98204.53;;;0.53;100.00
70304;BME280;57712;48.752;11.348;2023-01-28T07:29:34;98202.38;;;0.58;100.00
70304;BME280;57712;48.752;11.348;2023-01-28T07:32:01;98202.38;;;0.58;100.00
70304;BME280;57712;48.752;11.348;2023-01-28T07:34:27;98206.00;;;0.63;100.00
70304;BME280;57712;48.752;11.348;2023-01-28T07:36:54;98209.13;;;0.52;100.00
70304;BME280;57712;48.752;11.348;2023-01-28T07:39:22;98207.09;;;0.62;100.00
70304;BME280;57712;48.752;11.348;2023-01-28T07:41:49;98204.19;;;0.54;100.00
70304;BME280;57712;48.752;11.348;2023-01-28T07:44:15;98213.84;;;0.55;100.00
70304;BME280;57712;48.752;11.348;2023-01-28T07:46:42;98212.72;;;0.56;100.00
70304;BME280;57712;48.752;11.348;2023-01-28T07:49:08;98221.25;;;0.58;100.00
70304;BME280;57712;48.752;11.348;2023-01-28T07:51:35;98217.88;;;0.62;100.00
70304;BME280;57712;48.752;11.348;2023-01-28T07:54:01;98218.34;;;0.64;100.00
70304;BME280;57712;48.752;11.348;2023-01-28T07:56:29;98215.66;;;0.64;100.00
70304;BME280;57712;48.752;11.348;2023-01-28T07:58:56;98225.50;;;0.60;100.00
70304;BME280;57712;48.752;11.348;2023-01-28T08:01:22;98227.78;;;0.70;100.00
70304;BME280;57712;48.752;11.348;2023-01-28T08:03:49;98238.56;;;0.70;100.00
70304;BME280;57712;48.752;11.348;2023-01-28T08:06:16;98231.59;;;0.81;100.00
70304;BME280;57712;48.752;11.348;2023-01-28T08:08:42;98236.44;;;0.88;100.00
70304;BME280;57712;48.752;11.348;2023-01-28T08:11:09;98231.94;;;0.92;100.00
70304;BME280;57712;48.752;11.348;2023-01-28T08:13:36;98245.09;;;0.93;100.00
70304;BME280;57712;48.752;11.348;2023-01-28T08:16:03;98232.97;;;0.99;100.00
70304;BME280;57712;48.752;11.348;2023-01-28T08:18:30;98255.22;;;0.96;100.00
70304;BME280;57712;48.752;11.348;2023-01-28T08:20:57;98237.56;;;0.99;100.00
70304;BME280;57712;48.752;11.348;2023-01-28T08:23:25;98250.72;;;1.00;100.00
70304;BME280;57712;48.752;11.348;2023-01-28T08:25:52;98238.47;;;0.91;100.00
70304;BME280;57712;48.752;11.348;2023-01-28T08:28:21;98251.25;;;0.94;100.00
70304;BME280;57712;48.752;11.348;2023-01-28T08:30:48;98259.94;;;0.87;100.00
70304;BME280;57712;48.752;11.348;2023-01-28T08:33:16;98254.53;;;0.99;100.00
70304;BME280;57712;48.752;11.348;2023-01-28T08:35:44;98264.53;;;0.99;100.00
70304;BME280;57712;48.752;11.348;2023-01-28T08:38:12;98251.84;;;1.11;100.00
70304;BME280;57712;48.752;11.348;2023-01-28T08:40:40;98252.53;;;1.08;100.00
70304;BME280;57712;48.752;11.348;2023-01-28T08:43:07;98248.69;;;1.09;100.00
70304;BME280;57712;48.752;11.348;2023-01-28T08:45:33;98249.81;;;1.21;100.00
70304;BME280;57712;48.752;11.348;2023-01-28T08:48:02;98245.09;;;1.18;100.00
70304;BME280;57712;48.752;11.348;2023-01-28T08:50:34;98248.47;;;1.27;100.00
70304;BME280;57712;48.752;11.348;2023-01-28T08:53:07;98245.53;;;1.32;100.00
70304;BME280;57712;48.752;11.348;2023-01-28T08:55:33;98239.22;;;1.40;100.00
70304;BME280;57712;48.752;11.348;2023-01-28T08:58:05;98248.91;;;1.41;100.00
70304;BME280;57712;48.752;11.348;2023-01-28T09:00:33;98247.66;;;1.51;100.00
70304;BME280;57712;48.752;11.348;2023-01-28T09:03:00;98242.94;;;1.48;100.00
70304;BME280;57712;48.752;11.348;2023-01-28T09:05:29;98244.03;;;1.59;100.00
70304;BME280;57712;48.752;11.348;2023-01-28T09:08:03;98239.13;;;1.77;100.00
70304;BME280;57712;48.752;11.348;2023-01-28T09:10:29;98239.44;;;1.87;100.00
70304;BME280;57712;48.752;11.348;2023-01-28T09:12:56;98247.00;;;1.82;100.00
70304;BME280;57712;48.752;11.348;2023-01-28T09:15:23;98249.94;;;1.77;100.00
70304;BME280;57712;48.752;11.348;2023-01-28T09:17:56;98250.34;;;1.91;100.00
70304;BME280;57712;48.752;11.348;2023-01-28T09:20:23;98250.53;;;1.98;100.00
70304;BME280;57712;48.752;11.348;2023-01-28T09:22:49;98250.53;;;1.98;100.00
70304;BME280;57712;48.752;11.348;2023-01-28T09:25:16;98247.59;;;2.03;100.00
70304;BME280;57712;48.752;11.348;2023-01-28T09:27:43;98256.84;;;2.02;100.00
70304;BME280;57712;48.752;11.348;2023-01-28T09:30:12;98262.47;;;2.09;100.00
70304;BME280;57712;48.752;11.348;2023-01-28T09:32:39;98260.97;;;2.12;100.00
70304;BME280;57712;48.752;11.348;2023-01-28T09:35:06;98263.34;;;2.13;100.00
70304;BME280;57712;48.752;11.348;2023-01-28T09:37:33;98261.75;;;2.12;100.00
70304;BME280;57712;48.752;11.348;2023-01-28T09:40:00;98262.25;;;2.02;100.00
70304;BME280;57712;48.752;11.348;2023-01-28T09:45:16;98261.22;;;2.07;100.00
70304;BME280;57712;48.752;11.348;2023-01-28T09:47:47;98274.09;;;2.25;100.00
70304;BME280;57712;48.752;11.348;2023-01-28T09:50:22;98270.31;;;2.14;100.00
70304;BME280;57712;48.752;11.348;2023-01-28T09:52:50;98268.03;;;2.16;100.00
70304;BME280;57712;48.752;11.348;2023-01-28T09:55:35;98276.16;;;2.16;100.00
70304;BME280;57712;48.752;11.348;2023-01-28T09:58:07;98263.25;;;1.97;100.00
70304;BME280;57712;48.752;11.348;2023-01-28T10:12:15;98262.47;;;2.09;100.00
70304;BME280;57712;48.752;11.348;2023-01-28T10:17:38;98265.88;;;1.94;100.00
70304;BME280;57712;48.752;11.348;2023-01-28T10:20:23;98262.72;;;1.92;100.00
70304;BME280;57712;48.752;11.348;2023-01-28T10:25:45;98266.75;;;1.98;100.00
70304;BME280;57712;48.752;11.348;2023-01-28T10:28:19;98266.84;;;1.73;100.00
70304;BME280;57712;48.752;11.348;2023-01-28T10:30:47;98274.25;;;1.77;100.00
70304;BME280;57712;48.752;11.348;2023-01-28T10:33:22;98273.50;;;1.64;100.00
70304;BME280;57712;48.752;11.348;2023-01-28T10:35:50;98265.03;;;1.65;100.00
70304;BME280;57712;48.752;11.348;2023-01-28T10:38:20;98267.53;;;1.70;100.00
70304;BME280;57712;48.752;11.348;2023-01-28T10:40:47;98268.66;;;1.69;100.00
70304;BME280;57712;48.752;11.348;2023-01-28T10:43:18;98275.38;;;1.76;100.00
70304;BME280;57712;48.752;11.348;2023-01-28T10:48:37;98270.00;;;1.63;100.00
70304;BME280;57712;48.752;11.348;2023-01-28T10:51:08;98274.75;;;1.54;100.00
70304;BME280;57712;48.752;11.348;2023-01-28T10:53:39;98267.78;;;1.53;100.00
70304;BME280;57712;48.752;11.348;2023-01-28T10:56:09;98279.00;;;1.67;100.00
70304;BME280;57712;48.752;11.348;2023-01-28T10:58:47;98274.41;;;1.68;100.00
70304;BME280;57712;48.752;11.348;2023-01-28T11:01:15;98284.19;;;1.60;100.00
70304;BME280;57712;48.752;11.348;2023-01-28T11:03:52;98270.91;;;1.67;100.00
70304;BME280;57712;48.752;11.348;2023-01-28T11:06:24;98273.16;;;1.53;100.00
70304;BME280;57712;48.752;11.348;2023-01-28T11:08:51;98270.81;;;1.52;100.00
70304;BME280;57712;48.752;11.348;2023-01-28T11:11:25;98265.41;;;1.52;100.00
70304;BME280;57712;48.752;11.348;2023-01-28T11:13:53;98262.59;;;1.60;100.00
70304;BME280;57712;48.752;11.348;2023-01-28T11:16:21;98258.56;;;1.42;100.00
70304;BME280;57712;48.752;11.348;2023-01-28T11:18:52;98260.44;;;1.66;100.00
70304;BME280;57712;48.752;11.348;2023-01-28T11:21:24;98264.59;;;1.63;100.00
70304;BME280;57712;48.752;11.348;2023-01-28T11:23:59;98265.47;;;1.80;100.00
70304;BME280;57712;48.752;11.348;2023-01-28T11:26:32;98257.72;;;1.78;100.00
70304;BME280;57712;48.752;11.348;2023-01-28T11:29:00;98266.34;;;1.84;100.00
70304;BME280;57712;48.752;11.348;2023-01-28T11:31:27;98266.72;;;1.70;100.00
70304;BME280;57712;48.752;11.348;2023-01-28T11:33:57;98266.59;;;1.79;100.00
70304;BME280;57712;48.752;11.348;2023-01-28T11:36:29;98267.44;;;1.95;100.00
70304;BME280;57712;48.752;11.348;2023-01-28T11:38:59;98261.81;;;2.00;100.00
70304;BME280;57712;48.752;11.348;2023-01-28T11:44:13;98257.22;;;2.16;100.00
70304;BME280;57712;48.752;11.348;2023-01-28T11:49:41;98268.94;;;2.20;100.00
70304;BME280;57712;48.752;11.348;2023-01-28T11:52:22;98264.31;;;2.21;100.00
70304;BME280;57712;48.752;11.348;2023-01-28T11:58:11;98261.06;;;2.15;100.00
70304;BME280;57712;48.752;11.348;2023-01-28T12:00:48;98263.34;;;2.13;100.00
70304;BME280;57712;48.752;11.348;2023-01-28T12:09:01;98253.50;;;2.21;100.00
70304;BME280;57712;48.752;11.348;2023-01-28T12:11:39;98251.31;;;2.26;100.00
70304;BME280;57712;48.752;11.348;2023-01-28T12:20:08;98260.38;;;2.18;100.00
70304;BME280;57712;48.752;11.348;2023-01-28T12:23:05;98245.84;;;2.23;100.00
70304;BME280;57712;48.752;11.348;2023-01-28T12:25:50;98253.41;;;2.17;100.00
70304;BME280;57712;48.752;11.348;2023-01-28T12:28:33;98256.06;;;2.29;100.00
70304;BME280;57712;48.752;11.348;2023-01-28T12:31:36;98252.81;;;2.24;100.00
70304;BME280;57712;48.752;11.348;2023-01-28T12:40:23;98236.69;;;2.27;100.00
70304;BME280;57712;48.752;11.348;2023-01-28T12:43:07;98233.47;;;2.22;100.00
70304;BME280;57712;48.752;11.348;2023-01-28T12:45:43;98235.66;;;2.48;100.00
70304;BME280;57712;48.752;11.348;2023-01-28T12:48:12;98241.94;;;2.36;100.00
70304;BME280;57712;48.752;11.348;2023-01-28T12:50:52;98233.34;;;2.18;100.00
70304;BME280;57712;48.752;11.348;2023-01-28T12:53:26;98241.41;;;2.02;100.00
70304;BME280;57712;48.752;11.348;2023-01-28T12:56:02;98237.53;;;2.16;100.00
70304;BME280;57712;48.752;11.348;2023-01-28T12:58:39;98240.94;;;2.13;100.00
70304;BME280;57712;48.752;11.348;2023-01-28T13:01:12;98234.94;;;2.19;100.00
70304;BME280;57712;48.752;11.348;2023-01-28T13:03:56;98240.22;;;2.16;100.00
70304;BME280;57712;48.752;11.348;2023-01-28T13:06:43;98239.00;;;2.13;100.00
70304;BME280;57712;48.752;11.348;2023-01-28T13:09:18;98236.75;;;2.15;100.00
70304;BME280;57712;48.752;11.348;2023-01-28T13:11:47;98240.38;;;2.07;100.00
70304;BME280;57712;48.752;11.348;2023-01-28T13:14:16;98239.44;;;2.15;100.00
70304;BME280;57712;48.752;11.348;2023-01-28T13:16:43;98240.94;;;2.13;100.00
70304;BME280;57712;48.752;11.348;2023-01-28T13:21:46;98252.53;;;2.13;100.00
70304;BME280;57712;48.752;11.348;2023-01-28T13:26:55;98252.75;;;2.08;100.00
70304;BME280;57712;48.752;11.348;2023-01-28T13:29:32;98253.84;;;1.91;100.00
70304;BME280;57712;48.752;11.348;2023-01-28T13:32:02;98247.16;;;2.01;100.00
70304;BME280;57712;48.752;11.348;2023-01-28T13:34:40;98251.22;;;1.95;100.00
70304;BME280;57712;48.752;11.348;2023-01-28T13:37:31;98256.16;;;2.05;100.00
70304;BME280;57712;48.752;11.348;2023-01-28T13:42:41;98268.03;;;1.88;100.00
70304;BME280;57712;48.752;11.348;2023-01-28T13:47:46;98257.06;;;1.97;100.00
70304;BME280;57712;48.752;11.348;2023-01-28T13:50:24;98266.22;;;1.92;100.00
70304;BME280;57712;48.752;11.348;2023-01-28T13:53:04;98266.34;;;1.84;100.00
70304;BME280;57712;48.752;11.348;2023-01-28T13:55:37;98274.47;;;1.84;100.00
70304;BME280;57712;48.752;11.348;2023-01-28T13:58:16;98275.81;;;1.90;100.00
70304;BME280;57712;48.752;11.348;2023-01-28T14:16:59;98287.75;;;1.77;100.00
70304;BME280;57712;48.752;11.348;2023-01-28T14:19:32;98292.72;;;1.74;100.00
70304;BME280;57712;48.752;11.348;2023-01-28T14:22:06;98288.53;;;1.77;100.00
70304;BME280;57712;48.752;11.348;2023-01-28T14:24:36;98293.63;;;1.79;100.00
70304;BME280;57712;48.752;11.348;2023-01-28T14:27:17;98301.91;;;1.86;100.00
70304;BME280;57712;48.752;11.348;2023-01-28T14:32:33;98291.00;;;1.82;100.00
70304;BME280;57712;48.752;11.348;2023-01-28T14:35:06;98307.31;;;1.86;100.00
70304;BME280;57712;48.752;11.348;2023-01-28T14:37:34;98300.81;;;1.74;100.00
70304;BME280;57712;48.752;11.348;2023-01-28T14:40:12;98305.66;;;1.81;100.00